Time;durP1;ratioP1;P1;durP2;ratioP2;P2;SDS_P1;SDS_P2;PMS_P1;PMS_P2;Temp;Humidity;BMP_temperature;BMP_pressure;BME280_temperature;BME280_humidity;BME280_pressure;Samples;Min_cycle;Max_cycle;Signal;HPM_P1;HPM_P2
2023/08/29 00:01:58;;;;;;;4.60;2.75;;;15.20;99.90;;;;;;5031504;28;20048;-53
2023/08/29 00:04:24;;;;;;;5.45;2.50;;;15.20;99.90;;;;;;5031518;28;20029;-53
2023/08/29 00:06:50;;;;;;;5.38;2.20;;;15.20;99.90;;;;;;5031581;28;20057;-52
2023/08/29 00:09:15;;;;;;;4.13;2.35;;;15.20;99.90;;;;;;5031286;28;20474;-54
2023/08/29 00:11:41;;;;;;;6.32;2.55;;;15.10;99.90;;;;;;5031340;28;20037;-53
2023/08/29 00:14:06;;;;;;;5.30;2.72;;;15.00;99.90;;;;;;5031185;28;20052;-53
2023/08/29 00:16:32;;;;;;;5.97;2.78;;;14.90;99.90;;;;;;5031218;28;20048;-54
2023/08/29 00:18:58;;;;;;;5.22;3.15;;;14.90;99.90;;;;;;5031113;28;20128;-54
2023/08/29 00:21:23;;;;;;;6.13;2.75;;;14.80;99.90;;;;;;5031262;28;20029;-54
2023/08/29 00:23:49;;;;;;;5.85;3.08;;;14.70;99.90;;;;;;5031152;28;20022;-53
2023/08/29 00:26:14;;;;;;;5.43;3.13;;;14.60;99.90;;;;;;5031191;28;20398;-54
2023/08/29 00:28:41;;;;;;;5.25;3.33;;;14.60;99.90;;;;;;5030898;28;20397;-50
2023/08/29 00:31:07;;;;;;;5.53;3.58;;;14.50;99.90;;;;;;5013262;28;20028;-52
2023/08/29 00:33:32;;;;;;;8.52;4.20;;;14.50;99.90;;;;;;5030742;28;20479;-54
2023/08/29 00:35:58;;;;;;;8.27;4.25;;;14.50;99.90;;;;;;5013225;28;20038;-54
2023/08/29 00:38:23;;;;;;;6.85;4.30;;;14.50;99.90;;;;;;5030874;28;20056;-52
2023/08/29 00:40:52;;;;;;;7.80;4.15;;;14.50;99.90;;;;;;5013236;28;20120;-53
2023/08/29 00:43:17;;;;;;;13.07;5.30;;;14.50;99.90;;;;;;5012915;28;20514;-54
2023/08/29 00:45:44;;;;;;;6.22;3.90;;;14.40;99.90;;;;;;5013080;28;20521;-52
2023/08/29 00:48:11;;;;;;;7.45;4.45;;;14.40;99.90;;;;;;5012463;28;20029;-52
2023/08/29 00:50:38;;;;;;;6.75;3.95;;;14.30;99.90;;;;;;5012970;28;20033;-53
2023/08/29 00:53:06;;;;;;;7.25;3.90;;;14.30;99.90;;;;;;5012748;28;20509;-50
2023/08/29 00:55:34;;;;;;;6.05;3.50;;;14.30;99.90;;;;;;5012867;28;20041;-53
2023/08/29 00:58:04;;;;;;;6.07;3.40;;;14.30;99.90;;;;;;5030706;28;20105;-53
2023/08/29 01:00:31;;;;;;;6.05;4.05;;;14.20;99.90;;;;;;5030637;28;20112;-54
2023/08/29 01:02:58;;;;;;;7.07;3.95;;;14.10;99.90;;;;;;5012599;28;20191;-54
2023/08/29 01:05:23;;;;;;;6.88;3.85;;;14.10;99.90;;;;;;5012728;28;20065;-52
2023/08/29 01:07:58;;;;;;;7.45;3.95;;;14.00;99.90;;;;;;5012856;28;20072;-53
2023/08/29 01:10:51;;;;;;;6.47;3.90;;;14.00;99.90;;;;;;5012462;28;20032;-53
2023/08/29 01:13:19;;;;;;;6.85;4.38;;;13.90;99.90;;;;;;5012449;28;20605;-54
2023/08/29 01:15:50;;;;;;;8.60;3.90;;;13.90;99.90;;;;;;5012634;28;20173;-52
2023/08/29 01:18:19;;;;;;;10.95;4.45;;;13.80;99.90;;;;;;5030213;28;20490;-53
2023/08/29 01:20:47;;;;;;;7.63;4.13;;;13.80;99.90;;;;;;5012778;28;20189;-54
2023/08/29 01:23:23;;;;;;;7.07;4.22;;;13.80;99.90;;;;;;5030050;28;20036;-53
2023/08/29 01:25:56;;;;;;;8.43;4.10;;;13.80;99.90;;;;;;5012592;28;20048;-50
2023/08/29 01:28:22;;;;;;;6.85;4.25;;;13.80;99.90;;;;;;4996130;28;20041;-52
2023/08/29 01:30:49;;;;;;;8.20;4.55;;;13.70;99.90;;;;;;5030259;28;20029;-54
2023/08/29 01:33:18;;;;;;;9.82;4.97;;;13.70;99.90;;;;;;5030003;28;20482;-51
2023/08/29 01:35:47;;;;;;;8.20;5.05;;;13.80;99.90;;;;;;5012372;28;20045;-53
2023/08/29 01:38:15;;;;;;;7.80;5.25;;;13.80;99.90;;;;;;5030453;28;20030;-49
2023/08/29 01:40:40;;;;;;;8.13;4.95;;;13.80;99.90;;;;;;5012396;28;20064;-49
2023/08/29 01:43:07;;;;;;;9.93;5.97;;;13.90;99.90;;;;;;5012234;28;20025;-49
2023/08/29 01:45:33;;;;;;;8.73;5.68;;;13.90;99.90;;;;;;5012334;28;20036;-50
2023/08/29 01:47:58;;;;;;;8.18;5.40;;;13.80;99.90;;;;;;5012407;28;20049;-53
2023/08/29 01:50:29;;;;;;;9.38;5.18;;;13.90;99.90;;;;;;5029978;28;20090;-50
2023/08/29 01:52:55;;;;;;;8.30;4.93;;;13.80;99.90;;;;;;5012314;28;20378;-49
2023/08/29 01:55:21;;;;;;;9.18;5.43;;;13.80;99.90;;;;;;5012227;28;20072;-50
2023/08/29 01:57:51;;;;;;;11.20;4.75;;;13.90;99.90;;;;;;5012505;28;20057;-49
2023/08/29 02:00:17;;;;;;;12.43;4.65;;;13.90;99.90;;;;;;5015492;28;20033;-48
2023/08/29 02:02:43;;;;;;;9.63;4.85;;;13.90;99.90;;;;;;5033645;28;20502;-49
2023/08/29 02:05:09;;;;;;;8.02;4.93;;;13.80;99.90;;;;;;5016124;28;20040;-51
2023/08/29 02:07:35;;;;;;;12.55;4.93;;;13.70;99.90;;;;;;5033853;28;20044;-49
2023/08/29 02:10:01;;;;;;;7.38;4.65;;;13.60;99.90;;;;;;5015757;28;20521;-48
2023/08/29 02:12:27;;;;;;;8.32;4.82;;;13.50;99.90;;;;;;5015813;28;20474;-49
2023/08/29 02:14:52;;;;;;;8.90;5.25;;;13.50;99.90;;;;;;5015775;28;20084;-49
2023/08/29 02:17:18;;;;;;;11.23;5.45;;;13.40;99.90;;;;;;5015624;28;20101;-48
2023/08/29 02:19:44;;;;;;;9.32;4.65;;;13.40;99.90;;;;;;5015624;28;20102;-50
2023/08/29 02:22:12;;;;;;;11.43;5.20;;;13.40;99.90;;;;;;5015668;28;20348;-52
2023/08/29 02:24:38;;;;;;;8.65;5.25;;;13.30;99.90;;;;;;5033371;28;20422;-48
2023/08/29 02:27:04;;;;;;;8.15;5.15;;;13.30;99.90;;;;;;5033587;28;20470;-49
2023/08/29 02:29:30;;;;;;;8.55;4.90;;;13.40;99.90;;;;;;5033435;28;20688;-50
2023/08/29 02:31:56;;;;;;;9.30;4.93;;;13.40;99.90;;;;;;5015465;28;20036;-49
2023/08/29 02:34:24;;;;;;;8.65;4.85;;;13.40;99.90;;;;;;5032931;28;20366;-48
2023/08/29 02:36:50;;;;;;;9.77;5.70;;;13.40;99.90;;;;;;5014809;28;20116;-48
2023/08/29 02:39:16;;;;;;;9.38;5.18;;;13.30;99.90;;;;;;5014565;28;20037;-49
2023/08/29 02:41:42;;;;;;;9.68;5.07;;;13.30;99.90;;;;;;5014866;28;20038;-51
2023/08/29 02:44:07;;;;;;;12.80;5.20;;;13.30;99.90;;;;;;5032942;28;20021;-50
2023/08/29 02:46:33;;;;;;;8.40;5.32;;;13.20;99.90;;;;;;5033041;28;20136;-50
2023/08/29 02:48:59;;;;;;;10.77;5.70;;;13.30;99.90;;;;;;5033049;28;20319;-47
2023/08/29 02:51:25;;;;;;;10.57;5.20;;;13.20;99.90;;;;;;5032970;28;20394;-49
2023/08/29 02:53:51;;;;;;;11.30;5.30;;;13.30;99.90;;;;;;5015021;28;20026;-49
2023/08/29 02:56:16;;;;;;;8.38;4.72;;;13.20;99.90;;;;;;5015101;28;20021;-50
2023/08/29 02:58:42;;;;;;;10.40;5.65;;;13.20;99.90;;;;;;5015027;28;20041;-52
2023/08/29 03:01:11;;;;;;;9.43;5.43;;;13.20;99.90;;;;;;5032690;28;20041;-48
2023/08/29 03:03:37;;;;;;;9.48;5.45;;;13.20;99.90;;;;;;5032640;28;20025;-49
2023/08/29 03:06:03;;;;;;;10.38;5.13;;;13.20;99.90;;;;;;5014985;28;20045;-51
2023/08/29 03:08:29;;;;;;;10.25;5.57;;;13.20;99.90;;;;;;5032581;28;20032;-50
2023/08/29 03:10:55;;;;;;;7.95;4.45;;;13.20;99.90;;;;;;5014418;28;20039;-54
2023/08/29 03:13:22;;;;;;;9.80;5.35;;;13.10;99.90;;;;;;5014548;28;20401;-52
2023/08/29 03:15:48;;;;;;;8.52;5.22;;;13.10;99.90;;;;;;5014717;28;20034;-54
2023/08/29 03:18:14;;;;;;;8.30;4.80;;;13.10;99.90;;;;;;5014688;28;20038;-54
2023/08/29 03:20:41;;;;;;;9.10;5.05;;;13.10;99.90;;;;;;5014808;28;20036;-54
2023/08/29 03:23:09;;;;;;;8.82;5.50;;;13.10;99.90;;;;;;5014463;28;20043;-52
2023/08/29 03:25:34;;;;;;;9.65;5.03;;;13.10;99.90;;;;;;5014884;28;20470;-54
2023/08/29 03:28:00;;;;;;;8.63;4.88;;;13.10;99.90;;;;;;5032412;28;20117;-50
2023/08/29 03:30:26;;;;;;;9.32;4.88;;;13.10;99.90;;;;;;5014751;28;20045;-54
2023/08/29 03:32:52;;;;;;;10.05;5.45;;;13.10;99.90;;;;;;5032304;28;20045;-54
2023/08/29 03:35:19;;;;;;;9.73;5.95;;;13.20;99.90;;;;;;5032085;28;20033;-53
2023/08/29 03:37:45;;;;;;;9.68;5.80;;;13.20;99.90;;;;;;5032208;28;20028;-53
2023/08/29 03:40:11;;;;;;;10.32;5.13;;;13.20;99.90;;;;;;5032053;28;20466;-53
2023/08/29 03:42:38;;;;;;;10.40;5.72;;;13.10;99.90;;;;;;5013955;28;20041;-54
2023/08/29 03:45:04;;;;;;;13.52;5.57;;;13.10;99.90;;;;;;5014352;28;20490;-54
2023/08/29 03:47:32;;;;;;;10.25;5.75;;;13.10;99.90;;;;;;5032370;28;20140;-54
2023/08/29 03:49:58;;;;;;;9.98;5.50;;;13.10;99.90;;;;;;5031774;28;20130;-49
2023/08/29 03:52:28;;;;;;;10.35;5.63;;;13.10;99.90;;;;;;5014000;28;20083;-50
2023/08/29 03:54:56;;;;;;;9.85;5.70;;;13.10;99.90;;;;;;5014121;28;20034;-49
2023/08/29 03:57:27;;;;;;;8.50;5.32;;;13.10;99.90;;;;;;5014045;28;20037;-49
2023/08/29 03:59:53;;;;;;;11.60;5.80;;;13.20;99.90;;;;;;5013864;28;20029;-51
2023/08/29 04:02:20;;;;;;;11.10;5.95;;;13.10;99.90;;;;;;5014224;28;20030;-48
2023/08/29 04:04:45;;;;;;;11.02;5.82;;;13.10;99.90;;;;;;5014438;28;20030;-48
2023/08/29 04:07:11;;;;;;;12.70;5.88;;;13.10;99.90;;;;;;5014465;28;20044;-48
2023/08/29 04:09:38;;;;;;;12.80;6.82;;;13.20;99.90;;;;;;5014149;28;20033;-48
2023/08/29 04:12:07;;;;;;;10.50;6.20;;;13.20;99.90;;;;;;5014304;28;20033;-49
2023/08/29 04:14:33;;;;;;;;;;;13.20;99.90;;;;;;5014923;28;20041;-50
2023/08/29 04:16:59;;;;;;;11.40;6.32;;;13.20;99.90;;;;;;5032240;28;20289;-48
2023/08/29 04:19:26;;;;;;;14.75;7.65;;;13.30;99.90;;;;;;5014264;28;20049;-53
2023/08/29 04:21:51;;;;;;;15.45;7.82;;;13.30;99.90;;;;;;5013169;28;20116;-54
2023/08/29 04:24:17;;;;;;;15.98;7.88;;;13.40;99.90;;;;;;5031943;28;20482;-50
2023/08/29 04:26:42;;;;;;;15.15;7.07;;;13.40;99.90;;;;;;4990316;28;20042;-54
2023/08/29 04:29:08;;;;;;;16.30;7.72;;;13.40;99.90;;;;;;4994041;28;20032;-53
2023/08/29 04:31:34;;;;;;;15.27;7.80;;;13.50;99.90;;;;;;5011820;28;20446;-52
2023/08/29 04:34:00;;;;;;;12.48;7.25;;;13.50;99.90;;;;;;5011652;28;20030;-53
2023/08/29 04:36:25;;;;;;;12.68;7.43;;;13.50;99.90;;;;;;5011827;28;20030;-51
2023/08/29 04:38:51;;;;;;;13.90;7.45;;;13.50;99.90;;;;;;5011528;28;20033;-52
2023/08/29 04:41:17;;;;;;;12.30;7.13;;;13.60;99.90;;;;;;5011728;28;20045;-49
2023/08/29 04:43:42;;;;;;;12.68;6.80;;;13.60;99.90;;;;;;4993736;28;20030;-49
2023/08/29 04:46:08;;;;;;;13.25;7.45;;;13.60;99.90;;;;;;4994046;28;20022;-51
2023/08/29 04:48:35;;;;;;;11.63;6.85;;;13.60;99.90;;;;;;5011478;28;20025;-51
2023/08/29 04:51:04;;;;;;;12.02;7.15;;;13.60;99.90;;;;;;4999512;28;20033;-50
2023/08/29 04:53:31;;;;;;;13.85;7.32;;;13.60;99.90;;;;;;4993434;28;20131;-48
2023/08/29 04:56:03;;;;;;;15.50;6.75;;;13.60;99.90;;;;;;4993289;28;20092;-53
2023/08/29 04:58:34;;;;;;;14.77;7.72;;;13.60;99.90;;;;;;4993411;28;20096;-52
2023/08/29 05:01:00;;;;;;;12.02;6.43;;;13.60;99.90;;;;;;5009630;28;20030;-52
2023/08/29 05:03:27;;;;;;;12.40;6.22;;;13.60;99.90;;;;;;4991983;28;20045;-53
2023/08/29 05:05:53;;;;;;;13.23;7.18;;;13.60;99.90;;;;;;4993317;28;20038;-51
2023/08/29 05:08:18;;;;;;;11.52;6.57;;;13.60;99.90;;;;;;5009534;28;20034;-52
2023/08/29 05:10:44;;;;;;;13.35;7.35;;;13.70;99.90;;;;;;5009671;28;20053;-50
2023/08/29 05:13:10;;;;;;;12.65;6.97;;;13.70;99.90;;;;;;5010189;28;20057;-51
2023/08/29 05:15:37;;;;;;;12.90;6.95;;;13.70;99.90;;;;;;5009838;28;20438;-51
2023/08/29 05:18:04;;;;;;;13.02;6.72;;;13.70;99.90;;;;;;4977083;28;20026;-51
2023/08/29 05:20:29;;;;;;;12.90;7.65;;;13.80;99.90;;;;;;5009246;28;20084;-48
2023/08/29 05:22:55;;;;;;;13.15;6.53;;;13.80;99.90;;;;;;5009202;28;20044;-48
2023/08/29 05:25:21;;;;;;;13.90;6.90;;;13.80;99.90;;;;;;5010733;28;20037;-54
2023/08/29 05:27:47;;;;;;;16.58;6.82;;;13.90;99.90;;;;;;5010767;28;20037;-52
2023/08/29 05:30:13;;;;;;;14.07;7.13;;;13.90;99.90;;;;;;5010723;28;20030;-49
2023/08/29 05:32:39;;;;;;;12.27;6.97;;;13.90;99.90;;;;;;5011419;28;20061;-50
2023/08/29 05:35:05;;;;;;;14.50;7.07;;;14.00;99.90;;;;;;5014601;28;20383;-51
2023/08/29 05:37:31;;;;;;;13.32;6.95;;;14.00;99.90;;;;;;5014765;28;20034;-51
2023/08/29 05:39:56;;;;;;;13.80;6.80;;;14.00;99.90;;;;;;5014468;28;20504;-49
2023/08/29 05:42:22;;;;;;;15.20;7.32;;;14.10;99.90;;;;;;5014489;28;20037;-50
2023/08/29 05:44:47;;;;;;;11.88;6.68;;;14.10;99.90;;;;;;5014493;28;20026;-50
2023/08/29 05:47:13;;;;;;;13.38;6.70;;;14.10;99.90;;;;;;5014545;28;20095;-53
2023/08/29 05:49:38;;;;;;;13.98;6.68;;;14.10;99.90;;;;;;5014240;28;20034;-53
2023/08/29 05:52:05;;;;;;;15.13;6.80;;;14.20;99.90;;;;;;5014081;28;20077;-49
2023/08/29 05:54:31;;;;;;;13.00;6.72;;;14.20;99.90;;;;;;5014203;28;20038;-49
2023/08/29 05:56:56;;;;;;;13.43;6.82;;;14.20;99.90;;;;;;4996866;28;20033;-51
2023/08/29 05:59:22;;;;;;;12.15;6.82;;;14.30;99.90;;;;;;5014155;28;20093;-51
2023/08/29 06:01:48;;;;;;;13.77;6.43;;;14.30;99.90;;;;;;5014005;28;20383;-52
2023/08/29 06:04:14;;;;;;;12.68;6.50;;;14.40;99.90;;;;;;5013999;28;20033;-53
2023/08/29 06:06:40;;;;;;;10.73;5.38;;;14.40;99.90;;;;;;5014167;28;20112;-50
2023/08/29 06:09:08;;;;;;;13.88;6.40;;;14.50;99.90;;;;;;5013892;28;20030;-53
2023/08/29 06:11:34;;;;;;;11.93;5.93;;;14.50;99.90;;;;;;5014240;28;20026;-52
2023/08/29 06:14:01;;;;;;;12.60;6.75;;;14.60;99.90;;;;;;5013958;28;20022;-51
2023/08/29 06:16:26;;;;;;;15.27;6.82;;;14.60;99.90;;;;;;5014069;28;20064;-53
2023/08/29 06:18:52;;;;;;;15.18;6.55;;;14.60;99.90;;;;;;5013634;28;20073;-53
2023/08/29 06:21:19;;;;;;;10.88;6.22;;;14.70;99.90;;;;;;5013748;28;20048;-51
2023/08/29 06:23:44;;;;;;;13.15;7.10;;;14.70;99.90;;;;;;5013721;28;20026;-51
2023/08/29 06:26:10;;;;;;;12.23;6.65;;;14.70;99.90;;;;;;5013759;28;20026;-52
2023/08/29 06:28:36;;;;;;;11.05;6.78;;;14.80;99.90;;;;;;5013462;28;20426;-53
2023/08/29 06:31:07;;;;;;;10.85;6.40;;;14.80;99.90;;;;;;5013988;28;20033;-50
2023/08/29 06:33:34;;;;;;;11.52;6.25;;;14.90;99.90;;;;;;5013485;28;20038;-52
2023/08/29 06:36:00;;;;;;;10.30;6.05;;;14.90;99.90;;;;;;5013495;28;20122;-54
2023/08/29 06:38:25;;;;;;;9.90;6.20;;;15.00;99.90;;;;;;5014878;28;20479;-53
2023/08/29 06:40:55;;;;;;;13.32;6.90;;;15.00;99.90;;;;;;4997647;28;20033;-55
2023/08/29 06:43:21;;;;;;;11.13;5.85;;;15.10;99.90;;;;;;5014616;28;20032;-53
2023/08/29 06:45:47;;;;;;;10.88;6.18;;;15.10;99.90;;;;;;5011269;28;20034;-56
2023/08/29 06:48:13;;;;;;;11.00;5.55;;;15.20;99.90;;;;;;5014479;28;20442;-56
2023/08/29 06:50:38;;;;;;;10.57;5.95;;;15.30;99.90;;;;;;5015064;28;20029;-55
2023/08/29 06:53:04;;;;;;;11.70;5.88;;;15.30;99.90;;;;;;5013698;28;20030;-50
2023/08/29 06:55:32;;;;;;;10.32;5.53;;;15.30;99.90;;;;;;5013114;28;20391;-49
2023/08/29 06:57:58;;;;;;;13.23;6.37;;;15.40;99.90;;;;;;5013380;28;20105;-49
2023/08/29 07:00:24;;;;;;;11.07;5.72;;;15.40;99.90;;;;;;5012988;28;20180;-48
2023/08/29 07:02:50;;;;;;;11.23;5.63;;;15.50;99.90;;;;;;5012969;28;20057;-48
2023/08/29 07:05:17;;;;;;;10.65;5.18;;;15.50;99.90;;;;;;5013170;28;20037;-50
2023/08/29 07:07:43;;;;;;;10.05;5.18;;;15.60;99.90;;;;;;5013162;28;20049;-49
2023/08/29 07:10:09;;;;;;;9.80;5.55;;;15.60;99.90;;;;;;5013257;28;20388;-48
2023/08/29 07:12:35;;;;;;;9.43;5.63;;;15.70;99.90;;;;;;5013155;28;20030;-54
2023/08/29 07:15:01;;;;;;;12.95;5.05;;;15.70;99.90;;;;;;5013665;28;20068;-51
2023/08/29 07:17:27;;;;;;;10.73;5.82;;;15.80;99.90;;;;;;5013391;28;20112;-54
2023/08/29 07:19:53;;;;;;;9.98;5.53;;;15.80;99.90;;;;;;5013500;28;20026;-52
2023/08/29 07:22:18;;;;;;;10.48;5.68;;;15.80;99.90;;;;;;5013513;28;20022;-54
2023/08/29 07:24:44;;;;;;;9.32;4.57;;;15.90;99.90;;;;;;5013298;28;20172;-54
2023/08/29 07:27:10;;;;;;;9.13;4.53;;;15.90;99.90;;;;;;5013250;28;20092;-53
2023/08/29 07:29:36;;;;;;;10.35;5.93;;;16.10;99.90;;;;;;5013240;28;20037;-52
2023/08/29 07:32:02;;;;;;;12.18;5.25;;;16.10;99.90;;;;;;5013110;28;20034;-48
2023/08/29 07:34:28;;;;;;;9.75;5.50;;;16.20;99.90;;;;;;5013226;28;20034;-52
2023/08/29 07:36:53;;;;;;;10.50;5.43;;;16.30;99.90;;;;;;5013288;28;20030;-52
2023/08/29 07:39:20;;;;;;;10.48;5.47;;;16.30;99.90;;;;;;5013128;28;20030;-51
2023/08/29 07:41:46;;;;;;;11.35;4.60;;;16.30;99.90;;;;;;5013068;28;20471;-51
2023/08/29 07:44:11;;;;;;;7.55;4.97;;;16.30;99.90;;;;;;5012972;28;20026;-52
2023/08/29 07:46:37;;;;;;;9.70;5.03;;;16.40;99.90;;;;;;5013046;28;20368;-55
2023/08/29 07:49:09;;;;;;;9.63;4.88;;;16.40;99.90;;;;;;5012876;28;20052;-55
2023/08/29 07:51:35;;;;;;;10.07;4.80;;;16.50;99.90;;;;;;5012858;28;20030;-53
2023/08/29 07:54:01;;;;;;;13.82;6.03;;;16.60;99.90;;;;;;5012764;28;20029;-54
2023/08/29 07:56:26;;;;;;;12.98;6.00;;;16.60;99.90;;;;;;5012694;28;20030;-54
2023/08/29 07:58:52;;;;;;;9.27;4.45;;;16.70;99.90;;;;;;5012498;28;20109;-54
2023/08/29 08:01:18;;;;;;;12.80;5.82;;;16.80;99.90;;;;;;5012805;28;20022;-53
2023/08/29 08:03:44;;;;;;;10.73;5.80;;;16.90;99.90;;;;;;5012164;28;20026;-53
2023/08/29 08:06:10;;;;;;;12.52;5.97;;;16.90;99.90;;;;;;5011885;28;20034;-54
2023/08/29 08:08:35;;;;;;;11.43;5.53;;;16.90;99.90;;;;;;5011823;28;20033;-52
2023/08/29 08:11:01;;;;;;;12.60;5.75;;;17.00;99.90;;;;;;5012103;28;20042;-54
2023/08/29 08:13:28;;;;;;;9.70;4.68;;;17.00;99.90;;;;;;5011751;28;20033;-54
2023/08/29 08:15:53;;;;;;;8.23;4.53;;;17.20;99.90;;;;;;5012308;28;20109;-54
2023/08/29 08:18:19;;;;;;;11.57;4.45;;;17.20;99.90;;;;;;5011863;28;20128;-52
2023/08/29 08:20:45;;;;;;;11.65;4.68;;;17.30;99.90;;;;;;5012011;28;20116;-55
2023/08/29 08:23:10;;;;;;;11.38;5.05;;;17.40;99.90;;;;;;5011604;28;20517;-52
2023/08/29 08:25:36;;;;;;;15.60;5.88;;;17.40;99.90;;;;;;5011697;28;20053;-54
2023/08/29 08:28:02;;;;;;;15.75;6.45;;;17.50;99.90;;;;;;5011461;28;20037;-54
2023/08/29 08:30:28;;;;;;;10.43;5.55;;;17.60;99.90;;;;;;5011379;28;20068;-53
2023/08/29 08:32:54;;;;;;;11.88;5.38;;;17.60;99.90;;;;;;5011205;28;20037;-53
2023/08/29 08:35:20;;;;;;;16.33;6.50;;;17.60;99.90;;;;;;5011370;28;20041;-52
2023/08/29 08:37:45;;;;;;;14.23;6.60;;;17.60;99.90;;;;;;5011485;28;20038;-54
2023/08/29 08:40:14;;;;;;;13.23;6.50;;;17.70;99.90;;;;;;5011227;28;20022;-54
2023/08/29 08:42:40;;;;;;;;;;;17.70;99.90;;;;;;5011576;28;20087;-54
2023/08/29 08:45:07;;;;;;;18.88;8.45;;;17.70;99.90;;;;;;5011130;28;20414;-55
2023/08/29 08:47:37;;;;;;;20.20;8.93;;;17.80;99.90;;;;;;5011067;28;20069;-54
2023/08/29 08:50:09;;;;;;;15.75;7.15;;;17.80;99.90;;;;;;5010821;28;20026;-53
2023/08/29 08:52:35;;;;;;;15.93;7.78;;;18.00;99.90;;;;;;5010864;28;20033;-53
2023/08/29 08:55:01;;;;;;;14.02;5.38;;;18.00;99.90;;;;;;5010890;28;20495;-55
2023/08/29 08:57:27;;;;;;;11.02;5.00;;;18.10;99.90;;;;;;5010901;28;20080;-54
2023/08/29 08:59:53;;;;;;;9.75;4.57;;;18.20;99.90;;;;;;5010965;28;20025;-51
2023/08/29 09:02:20;;;;;;;7.50;3.35;;;18.20;99.90;;;;;;5010672;28;20107;-52
2023/08/29 09:04:45;;;;;;;7.80;3.25;;;18.30;99.90;;;;;;5011152;28;20045;-52
2023/08/29 09:07:11;;;;;;;11.75;3.90;;;18.40;99.90;;;;;;5010495;28;20034;-52
2023/08/29 09:09:37;;;;;;;9.23;4.57;;;18.40;99.90;;;;;;5010720;28;20115;-55
2023/08/29 09:12:03;;;;;;;12.43;5.03;;;18.40;99.90;;;;;;5010729;28;20045;-54
2023/08/29 09:14:31;;;;;;;8.70;4.07;;;18.40;99.90;;;;;;5010755;28;20100;-54
2023/08/29 09:17:01;;;;;;;9.10;4.15;;;18.40;99.90;;;;;;5010785;28;20433;-52
2023/08/29 09:19:30;;;;;;;9.27;4.03;;;18.40;99.90;;;;;;5010710;28;20037;-52
2023/08/29 09:21:56;;;;;;;10.55;4.50;;;18.40;99.90;;;;;;5010596;28;20068;-49
2023/08/29 09:24:28;;;;;;;9.13;4.03;;;18.40;99.90;;;;;;5010407;28;20042;-53
2023/08/29 09:26:53;;;;;;;6.78;3.10;;;18.50;99.90;;;;;;5010920;28;20376;-51
2023/08/29 09:29:20;;;;;;;8.25;3.50;;;18.50;99.90;;;;;;5010413;28;20083;-51
2023/08/29 09:31:47;;;;;;;9.98;3.30;;;18.60;99.90;;;;;;5010466;28;20046;-51
2023/08/29 09:34:23;;;;;;;8.73;3.42;;;18.60;99.90;;;;;;5010331;28;20034;-51
2023/08/29 09:36:49;;;;;;;8.20;2.90;;;18.60;99.90;;;;;;4992779;28;20125;-47
2023/08/29 09:39:14;;;;;;;8.68;3.78;;;18.60;99.90;;;;;;5010407;28;20114;-49
2023/08/29 09:41:40;;;;;;;8.68;3.60;;;18.60;99.90;;;;;;5010404;28;20033;-50
2023/08/29 09:44:12;;;;;;;7.32;3.40;;;18.60;99.90;;;;;;5010384;28;20029;-49
2023/08/29 09:46:43;;;;;;;5.90;2.70;;;18.60;99.90;;;;;;5010598;28;20388;-50
2023/08/29 09:49:09;;;;;;;5.82;2.28;;;18.60;99.90;;;;;;5010069;28;20395;-51
2023/08/29 09:51:36;;;;;;;7.20;2.53;;;18.70;99.90;;;;;;5010209;28;20029;-50
2023/08/29 09:54:08;;;;;;;6.50;2.08;;;18.60;99.90;;;;;;5010241;28;20502;-51
2023/08/29 09:56:34;;;;;;;6.35;3.03;;;18.60;99.90;;;;;;5010378;28;20038;-54
2023/08/29 09:59:02;;;;;;;4.80;2.40;;;18.60;99.90;;;;;;5010156;28;20025;-55
2023/08/29 10:01:28;;;;;;;3.40;1.63;;;18.50;99.90;;;;;;5010365;28;20033;-55
2023/08/29 10:04:00;;;;;;;3.30;1.40;;;18.50;99.90;;;;;;5010384;28;20034;-53
2023/08/29 10:06:27;;;;;;;2.30;1.10;;;18.40;99.90;;;;;;5010344;28;20045;-54
2023/08/29 10:09:00;;;;;;;4.75;1.30;;;18.40;99.90;;;;;;4992569;28;20065;-54
2023/08/29 10:11:27;;;;;;;1.98;0.95;;;18.30;99.90;;;;;;5010217;28;20053;-52
2023/08/29 10:13:53;;;;;;;3.03;0.82;;;18.30;99.90;;;;;;5010230;28;20034;-54
2023/08/29 10:16:20;;;;;;;1.95;1.10;;;18.30;99.90;;;;;;5010136;28;20398;-51
2023/08/29 10:18:48;;;;;;;2.15;1.13;;;18.40;99.90;;;;;;5010183;28;20034;-54
2023/08/29 10:21:14;;;;;;;2.22;1.15;;;18.40;99.90;;;;;;5013451;28;20089;-53
2023/08/29 10:23:40;;;;;;;2.80;1.13;;;18.40;99.90;;;;;;5013916;28;20030;-55
2023/08/29 10:26:06;;;;;;;2.53;1.20;;;18.50;99.90;;;;;;5013853;28;20061;-53
2023/08/29 10:28:33;;;;;;;1.88;0.98;;;18.60;99.90;;;;;;5013486;28;20038;-55
2023/08/29 10:31:04;;;;;;;2.95;1.15;;;18.70;99.90;;;;;;5013711;28;20065;-50
2023/08/29 10:33:31;;;;;;;2.75;1.23;;;18.70;99.90;;;;;;5013480;28;20049;-55
2023/08/29 10:35:57;;;;;;;3.33;1.17;;;18.80;99.90;;;;;;5013532;28;20093;-55
2023/08/29 10:38:26;;;;;;;2.33;1.20;;;18.80;99.90;;;;;;5013530;28;20380;-54
2023/08/29 10:41:06;;;;;;;3.45;1.33;;;18.80;99.90;;;;;;5013646;28;20034;-51
2023/08/29 10:43:32;;;;;;;3.47;1.30;;;18.90;99.90;;;;;;5013312;28;20104;-53
2023/08/29 10:46:15;;;;;;;2.90;1.10;;;18.90;99.90;;;;;;4995917;28;20121;-54
2023/08/29 10:48:43;;;;;;;2.28;0.93;;;19.00;99.90;;;;;;5013315;28;20038;-54
2023/08/29 10:51:14;;;;;;;3.28;1.15;;;19.00;99.90;;;;;;5013397;28;20095;-55
2023/08/29 10:53:51;;;;;;;1.70;0.98;;;19.10;99.90;;;;;;5012999;28;20424;-53
2023/08/29 10:56:20;;;;;;;2.60;0.90;;;19.30;99.90;;;;;;5013120;28;20042;-53
2023/08/29 10:58:50;;;;;;;2.42;1.13;;;19.40;99.90;;;;;;5013070;28;20540;-53
2023/08/29 11:01:24;;;;;;;1.17;0.70;;;19.40;99.90;;;;;;5013120;28;20040;-51
2023/08/29 11:03:50;;;;;;;1.80;0.85;;;19.60;99.90;;;;;;5013062;28;20026;-53
2023/08/29 11:06:21;;;;;;;5.15;1.75;;;19.70;99.90;;;;;;5013003;28;20129;-52
2023/08/29 11:08:47;;;;;;;3.65;1.65;;;19.80;99.90;;;;;;5012821;28;20029;-53
2023/08/29 11:11:17;;;;;;;4.18;1.92;;;19.80;99.90;;;;;;4995536;28;20045;-52
2023/08/29 11:14:03;;;;;;;4.38;1.70;;;20.00;99.90;;;;;;5013009;28;20026;-54
2023/08/29 11:16:34;;;;;;;6.20;2.05;;;20.00;99.90;;;;;;5012853;28;20482;-52
2023/08/29 11:19:06;;;;;;;4.28;1.55;;;19.90;99.90;;;;;;5012488;28;20081;-50
2023/08/29 11:21:32;;;;;;;2.80;1.35;;;19.90;99.90;;;;;;4995337;28;20402;-53
2023/08/29 11:23:58;;;;;;;4.53;1.58;;;19.90;99.90;;;;;;5012941;28;20246;-53
2023/08/29 11:26:25;;;;;;;3.63;1.60;;;20.10;99.90;;;;;;5012812;28;20042;-52
2023/08/29 11:28:51;;;;;;;4.60;1.48;;;20.10;99.90;;;;;;5012721;28;20033;-54
2023/08/29 11:31:18;;;;;;;3.38;1.50;;;20.20;99.90;;;;;;5012377;28;20036;-54
2023/08/29 11:33:46;;;;;;;3.05;1.50;;;20.30;99.90;;;;;;5012664;28;20042;-54
2023/08/29 11:36:12;;;;;;;7.60;3.00;;;20.30;99.90;;;;;;5012663;28;20041;-52
2023/08/29 11:38:39;;;;;;;4.18;1.80;;;20.50;99.90;;;;;;5012443;28;20111;-54
2023/08/29 11:41:05;;;;;;;3.53;2.00;;;20.60;99.90;;;;;;5012601;28;20088;-50
2023/08/29 11:43:32;;;;;;;3.30;1.80;;;20.50;99.90;;;;;;5012210;28;20231;-51
2023/08/29 11:45:59;;;;;;;6.72;3.17;;;20.50;99.90;;;;;;5012237;28;20064;-53
2023/08/29 11:48:26;;;;;;;2.65;1.20;;;20.40;99.90;;;;;;5012173;28;20034;-51
2023/08/29 11:50:53;;;;;;;1.77;0.80;;;20.60;99.90;;;;;;5012610;28;20030;-54
2023/08/29 11:53:37;;;;;;;1.80;0.85;;;20.60;99.90;;;;;;5012138;28;20551;-53
2023/08/29 11:56:05;;;;;;;2.13;1.10;;;20.30;99.90;;;;;;5012285;28;20281;-51
2023/08/29 11:58:33;;;;;;;2.03;1.13;;;20.20;99.90;;;;;;5012061;28;20030;-50
2023/08/29 12:01:01;;;;;;;2.40;1.03;;;20.10;99.90;;;;;;5012062;28;20038;-52
2023/08/29 12:03:27;;;;;;;3.20;1.42;;;20.00;99.90;;;;;;5011742;28;20480;-52
2023/08/29 12:05:58;;;;;;;4.93;1.35;;;19.90;99.90;;;;;;5011936;28;20034;-54
2023/08/29 12:08:37;;;;;;;2.38;1.08;;;19.70;99.90;;;;;;5011818;28;20041;-53
2023/08/29 12:11:03;;;;;;;2.00;1.00;;;19.60;99.90;;;;;;5011967;28;20054;-51
2023/08/29 12:13:29;;;;;;;1.80;0.98;;;19.50;99.90;;;;;;5011707;28;20435;-53
2023/08/29 12:15:55;;;;;;;3.15;0.98;;;19.40;99.90;;;;;;5011777;28;20034;-51
2023/08/29 12:18:23;;;;;;;3.05;1.15;;;19.30;99.90;;;;;;5011466;28;20116;-52
2023/08/29 12:20:49;;;;;;;1.05;0.88;;;19.20;99.90;;;;;;5011662;28;20029;-51
2023/08/29 12:23:25;;;;;;;1.88;1.10;;;19.00;99.90;;;;;;5011469;28;20112;-53
2023/08/29 12:25:51;;;;;;;2.60;1.08;;;18.80;99.90;;;;;;5011642;28;20030;-54
2023/08/29 12:28:16;;;;;;;2.22;0.95;;;18.60;99.90;;;;;;5011448;28;20486;-53
2023/08/29 12:30:42;;;;;;;4.75;0.82;;;18.50;99.90;;;;;;5011672;28;20045;-52
2023/08/29 12:33:07;;;;;;;1.45;0.73;;;18.50;99.90;;;;;;5011368;28;20068;-53
2023/08/29 12:35:33;;;;;;;2.58;0.90;;;18.40;99.90;;;;;;5011370;28;20558;-51
2023/08/29 12:37:59;;;;;;;1.65;0.80;;;18.40;99.90;;;;;;5011537;28;20109;-53
2023/08/29 12:40:24;;;;;;;2.22;0.88;;;18.40;99.90;;;;;;5011199;28;20026;-50
2023/08/29 12:42:51;;;;;;;2.65;1.02;;;18.40;99.90;;;;;;5010444;28;20065;-52